createdAt,value
2018-02-09T00:02:59.177Z,42.17
2018-02-09T00:09:03.662Z,40.47
2018-02-09T00:15:08.473Z,40.07
2018-02-09T00:21:13.722Z,42.03
2018-02-09T00:27:18.231Z,39.77
2018-02-09T00:33:23.053Z,38.63
2018-02-09T00:39:27.550Z,39.00
2018-02-09T00:45:32.104Z,36.30
2018-02-09T00:51:36.677Z,38.50
2018-02-09T00:57:41.179Z,38.93
2018-02-09T01:03:45.675Z,39.07
2018-02-09T01:09:50.204Z,34.20
2018-02-09T01:15:55.114Z,37.70
2018-02-09T01:21:59.614Z,34.40
2018-02-09T01:28:04.119Z,36.40
2018-02-09T01:34:08.728Z,35.50
2018-02-09T01:40:13.572Z,35.67
2018-02-09T01:46:18.090Z,36.57
2018-02-09T01:52:22.836Z,36.80
2018-02-09T01:58:27.343Z,36.40
2018-02-09T02:04:32.638Z,35.37
2018-02-09T02:10:37.958Z,39.67
2018-02-09T02:16:42.445Z,40.57
2018-02-09T02:22:47.155Z,42.47
2018-02-09T02:28:53.181Z,38.00
2018-02-09T02:34:57.709Z,41.80
2018-02-09T02:41:02.199Z,37.47
2018-02-09T02:47:06.666Z,39.00
2018-02-09T02:53:11.300Z,39.90
2018-02-09T02:59:15.808Z,40.00
2018-02-09T03:05:20.888Z,40.97
2018-02-09T03:11:26.517Z,43.47
2018-02-09T03:17:31.120Z,40.23
2018-02-09T03:23:35.683Z,35.37
2018-02-09T03:29:40.172Z,36.10
2018-02-09T03:35:44.649Z,40.90
2018-02-09T03:41:49.211Z,36.27
2018-02-09T03:47:53.988Z,38.10
2018-02-09T03:53:58.636Z,39.10
2018-02-09T04:00:03.260Z,37.73
2018-02-09T04:06:07.834Z,40.07
2018-02-09T04:12:12.318Z,39.13
2018-02-09T04:18:16.978Z,38.33
2018-02-09T04:24:22.358Z,37.87
2018-02-09T04:30:26.948Z,40.47
2018-02-09T04:36:32.291Z,40.90
2018-02-09T04:42:36.913Z,44.33
2018-02-09T04:48:41.551Z,41.47
2018-02-09T04:54:46.420Z,41.13
2018-02-09T05:00:51.743Z,43.90
2018-02-09T05:06:56.383Z,44.17
2018-02-09T05:13:01.003Z,43.37
2018-02-09T05:19:05.838Z,44.77
2018-02-09T05:25:10.591Z,46.47
2018-02-09T05:31:15.851Z,46.20
2018-02-09T05:37:20.633Z,47.80
2018-02-09T05:43:25.274Z,45.87
2018-02-09T05:49:29.943Z,42.53
2018-02-09T05:55:35.263Z,49.60
2018-02-09T06:01:39.956Z,42.07
2018-02-09T06:07:44.588Z,45.07
2018-02-09T06:13:49.110Z,46.03
2018-02-09T06:19:54.143Z,45.40
2018-02-09T06:25:58.770Z,47.50
2018-02-09T06:32:03.429Z,50.90
2018-02-09T06:38:08.685Z,49.30
2018-02-09T06:44:13.173Z,52.47
2018-02-09T06:50:17.768Z,53.83
2018-02-09T06:56:22.858Z,54.67
2018-02-09T07:02:27.754Z,53.97
2018-02-09T07:08:32.237Z,52.53
2018-02-09T07:14:36.893Z,54.60
2018-02-09T07:20:41.482Z,65.00
2018-02-09T07:26:47.739Z,56.73
2018-02-09T07:32:53.020Z,54.70
2018-02-09T07:38:57.574Z,53.17
2018-02-09T07:45:03.940Z,57.20
2018-02-09T07:51:08.468Z,58.33
2018-02-09T07:57:12.948Z,61.07
2018-02-09T08:03:18.248Z,59.53
2018-02-09T08:09:23.069Z,60.03
2018-02-09T08:15:27.649Z,60.13
2018-02-09T08:21:32.904Z,61.40
2018-02-09T08:27:37.414Z,62.30
2018-02-09T08:33:42.688Z,59.03
2018-02-09T08:39:47.178Z,62.70
2018-02-09T08:45:53.092Z,59.90
2018-02-09T08:51:58.338Z,62.67
2018-02-09T08:58:03.005Z,56.80
2018-02-09T09:04:07.530Z,56.30
2018-02-09T09:10:12.829Z,56.13
2018-02-09T09:16:18.147Z,56.50
2018-02-09T09:22:22.826Z,56.87
2018-02-09T09:28:27.445Z,53.60
2018-02-09T09:34:32.768Z,52.40
2018-02-09T09:40:38.046Z,52.50
2018-02-09T09:46:42.551Z,53.27
2018-02-09T09:52:47.068Z,51.30
2018-02-09T09:58:51.605Z,50.23
2018-02-09T10:04:56.206Z,54.33
2018-02-09T10:11:01.509Z,53.10
2018-02-09T10:17:06.766Z,52.27
2018-02-09T10:23:11.275Z,55.40
2018-02-09T10:29:15.781Z,53.17
2018-02-09T10:35:21.074Z,51.87
2018-02-09T10:41:25.757Z,51.57
2018-02-09T10:47:30.397Z,52.90
2018-02-09T10:53:35.008Z,51.07
2018-02-09T10:59:39.633Z,53.73
2018-02-09T11:05:44.287Z,55.70
2018-02-09T11:11:48.924Z,53.23
2018-02-09T11:17:53.945Z,51.13
2018-02-09T11:23:58.528Z,54.00
2018-02-09T11:30:03.094Z,49.20
2018-02-09T11:36:07.613Z,52.27
2018-02-09T11:42:12.304Z,48.17
2018-02-09T11:48:16.803Z,48.77
2018-02-09T11:54:21.587Z,49.53
2018-02-09T12:00:26.274Z,49.73
2018-02-09T12:06:30.749Z,46.27
2018-02-09T12:12:35.266Z,51.53
2018-02-09T12:18:40.032Z,52.80
2018-02-09T12:24:45.413Z,52.37
2018-02-09T12:30:50.635Z,51.40
2018-02-09T12:36:56.240Z,48.97
2018-02-09T12:43:00.964Z,47.90
2018-02-09T12:49:05.448Z,48.40
2018-02-09T12:55:09.938Z,48.80
2018-02-09T13:01:14.579Z,49.20
2018-02-09T13:07:19.443Z,52.07
2018-02-09T13:13:24.288Z,48.07
2018-02-09T13:19:28.970Z,45.77
2018-02-09T13:25:33.490Z,51.03
2018-02-09T13:31:39.570Z,54.60
2018-02-09T13:37:44.079Z,57.37
2018-02-09T13:43:48.553Z,52.63
2018-02-09T13:49:53.264Z,46.90
2018-02-09T13:55:57.893Z,44.70
2018-02-09T14:02:02.528Z,46.87
2018-02-09T14:08:07.056Z,37.23
2018-02-09T14:14:11.529Z,42.33
2018-02-09T14:20:16.129Z,39.00
2018-02-09T14:26:21.405Z,40.90
2018-02-09T14:32:25.977Z,38.27
2018-02-09T14:38:30.450Z,43.47
2018-02-09T14:44:34.932Z,41.50
2018-02-09T14:50:39.435Z,39.47
2018-02-09T14:56:44.662Z,38.27
2018-02-09T15:02:49.472Z,39.10
2018-02-09T15:08:54.434Z,40.10
2018-02-09T15:14:58.895Z,39.80
2018-02-09T15:21:03.427Z,49.33
2018-02-09T15:27:07.931Z,44.40
2018-02-09T15:33:12.434Z,43.77
2018-02-09T15:39:16.916Z,45.20
2018-02-09T15:45:22.204Z,47.87
2018-02-09T15:51:28.274Z,45.23
2018-02-09T15:57:32.845Z,43.70
2018-02-09T16:03:37.585Z,41.53
2018-02-09T16:09:42.127Z,40.13
2018-02-09T16:15:46.621Z,41.27
2018-02-09T16:21:51.488Z,43.87
2018-02-09T16:27:56.057Z,43.03
2018-02-09T16:34:00.655Z,39.93
2018-02-09T16:40:05.129Z,41.70
2018-02-09T16:46:09.834Z,39.43
2018-02-09T16:52:15.243Z,39.57
2018-02-09T16:58:20.112Z,38.70
2018-02-09T17:04:24.982Z,40.37
2018-02-09T17:10:29.479Z,38.23
2018-02-09T17:16:34.705Z,36.90
2018-02-09T17:22:39.171Z,38.07
2018-02-09T17:28:43.650Z,36.10
2018-02-09T17:34:48.122Z,39.27
2018-02-09T17:40:53.191Z,37.27
2018-02-09T17:46:58.426Z,39.67
2018-02-09T17:53:02.899Z,38.37
2018-02-09T17:59:07.371Z,38.50
2018-02-09T18:05:11.900Z,39.37
2018-02-09T18:11:16.510Z,42.87
2018-02-09T18:17:21.952Z,41.60
2018-02-09T18:23:27.264Z,44.83
2018-02-09T18:29:31.757Z,41.13
2018-02-09T18:35:37.093Z,43.23
2018-02-09T18:41:41.600Z,44.93
2018-02-09T18:47:46.295Z,45.47
2018-02-09T18:53:50.979Z,44.60
2018-02-09T18:59:55.575Z,41.37
2018-02-09T19:06:00.088Z,46.20
2018-02-09T19:12:04.655Z,44.13
2018-02-09T19:18:10.014Z,45.37
2018-02-09T19:24:14.613Z,67.67
2018-02-09T19:30:20.144Z,51.17
2018-02-09T19:36:24.869Z,58.17
2018-02-09T19:42:29.351Z,46.37
2018-02-09T19:48:33.998Z,46.67
2018-02-09T19:54:38.623Z,46.07
2018-02-09T20:00:43.274Z,45.77
2018-02-09T20:06:48.136Z,47.50
2018-02-09T20:12:53.033Z,48.67
2018-02-09T20:18:57.573Z,50.20
2018-02-09T20:25:02.854Z,52.20
2018-02-09T20:31:08.830Z,50.40
2018-02-09T20:37:13.317Z,53.33
2018-02-09T20:43:17.886Z,50.37
2018-02-09T20:49:22.843Z,53.93
2018-02-09T20:55:27.631Z,55.07
2018-02-09T21:01:32.927Z,53.80
2018-02-09T21:07:37.519Z,52.67
2018-02-09T21:13:42.000Z,49.60
2018-02-09T21:19:46.562Z,51.53
2018-02-09T21:25:51.090Z,50.60
2018-02-09T21:31:55.756Z,51.07
2018-02-09T21:38:00.419Z,51.97
2018-02-09T21:44:04.998Z,48.67
2018-02-09T21:50:09.549Z,46.20
2018-02-09T21:56:14.780Z,45.00
2018-02-09T22:02:19.793Z,46.07
2018-02-09T22:08:24.606Z,44.47
2018-02-09T22:14:29.917Z,44.40
2018-02-09T22:20:35.158Z,45.60
2018-02-09T22:26:39.718Z,44.90
2018-02-09T22:32:44.302Z,46.70
2018-02-09T22:38:48.950Z,43.07
2018-02-09T22:44:54.215Z,40.80
2018-02-09T22:50:58.730Z,40.97
2018-02-09T22:57:03.559Z,39.20
2018-02-09T23:03:08.166Z,41.60
2018-02-09T23:09:12.695Z,42.00
2018-02-09T23:15:17.160Z,40.60
2018-02-09T23:21:22.539Z,40.93
2018-02-09T23:27:28.011Z,39.47
2018-02-09T23:33:32.667Z,39.17
2018-02-09T23:39:37.275Z,38.17
2018-02-09T23:45:41.764Z,36.93
2018-02-09T23:51:46.408Z,35.17
2018-02-09T23:57:51.654Z,35.87
